Time;durP1;ratioP1;P1;durP2;ratioP2;P2;SDS_P1;SDS_P2;PMS_P1;PMS_P2;Temp;Humidity;BMP_temperature;BMP_pressure;BME280_temperature;BME280_humidity;BME280_pressure;Samples;Min_cycle;Max_cycle;Signal;HPM_P1;HPM_P2
2024/01/11 00:01:14;;;;;;;23.07;20.50;;;-6.30;1.00;;;;;;5033836;28;20182;-56
2024/01/11 00:03:40;;;;;;;22.93;20.37;;;-6.40;1.00;;;;;;5031554;28;20316;-56
2024/01/11 00:06:05;;;;;;;23.07;19.03;;;-6.40;1.00;;;;;;5033330;28;20178;-55
2024/01/11 00:08:31;;;;;;;27.60;19.13;;;-6.40;1.00;;;;;;5035217;28;20902;-54
2024/01/11 00:10:57;;;;;;;31.20;21.90;;;-6.40;1.00;;;;;;5031996;28;20232;-54
2024/01/11 00:13:22;;;;;;;21.90;19.60;;;-6.40;1.00;;;;;;5030718;28;20225;-52
2024/01/11 00:15:48;;;;;;;22.43;20.10;;;-6.40;1.00;;;;;;5032408;28;20186;-54
2024/01/11 00:18:13;;;;;;;20.47;17.93;;;-6.50;1.00;;;;;;5038495;28;20210;-51
2024/01/11 00:20:39;;;;;;;28.40;20.70;;;-6.50;1.00;;;;;;5031717;28;20394;-55
2024/01/11 00:23:05;;;;;;;20.07;17.97;;;-6.50;1.00;;;;;;5039196;28;20208;-56
2024/01/11 00:25:30;;;;;;;28.80;21.80;;;-6.50;1.00;;;;;;5035463;28;20702;-47
2024/01/11 00:27:56;;;;;;;25.27;21.40;;;-6.60;1.00;;;;;;5039383;28;20182;-53
2024/01/11 00:30:23;;;;;;;24.50;20.27;;;-6.60;1.00;;;;;;5028578;28;20186;-55
2024/01/11 00:32:48;;;;;;;24.75;21.02;;;-6.60;1.00;;;;;;5037233;28;20189;-46
2024/01/11 00:35:14;;;;;;;23.70;21.33;;;-6.70;1.00;;;;;;5030072;28;20178;-55
2024/01/11 00:37:40;;;;;;;22.80;20.43;;;-6.70;1.00;;;;;;5030090;28;20186;-54
2024/01/11 00:40:06;;;;;;;27.53;21.47;;;-6.80;1.00;;;;;;5030099;28;20206;-41
2024/01/11 00:42:31;;;;;;;25.52;21.13;;;-6.80;1.00;;;;;;5032660;28;20859;-56
2024/01/11 00:44:57;;;;;;;24.30;21.70;;;-6.80;1.00;;;;;;5024319;28;20185;-53
2024/01/11 00:47:23;;;;;;;26.37;21.80;;;-6.80;1.00;;;;;;5039294;28;20703;-54
2024/01/11 00:49:48;;;;;;;26.67;21.90;;;-6.90;1.00;;;;;;5029658;28;20194;-55
2024/01/11 00:52:14;;;;;;;28.70;21.80;;;-6.90;1.00;;;;;;5037491;28;20194;-36
2024/01/11 00:54:40;;;;;;;24.50;22.10;;;-6.90;1.00;;;;;;5029790;28;20194;-36
2024/01/11 00:57:06;;;;;;;27.15;23.38;;;-7.00;1.00;;;;;;5036793;28;20671;-37
2024/01/11 00:59:31;;;;;;;26.30;22.10;;;-7.00;1.00;;;;;;5026330;28;20289;-37
2024/01/11 01:01:57;;;;;;;22.90;20.60;;;-7.00;1.00;;;;;;5037503;28;20680;-37
2024/01/11 01:04:22;;;;;;;24.83;21.50;;;-7.00;1.00;;;;;;5031145;28;20636;-37
2024/01/11 01:06:48;;;;;;;27.00;21.53;;;-7.10;1.00;;;;;;5037846;28;20284;-37
2024/01/11 01:09:14;;;;;;;29.93;21.30;;;-7.10;1.00;;;;;;5028376;28;20193;-37
2024/01/11 01:11:40;;;;;;;22.90;20.75;;;-7.10;1.00;;;;;;5033992;28;20236;-36
2024/01/11 01:14:05;;;;;;;21.83;19.53;;;-7.10;1.00;;;;;;5031607;28;20653;-35
2024/01/11 01:16:31;;;;;;;32.00;21.87;;;-7.20;1.00;;;;;;5024537;28;20219;-36
2024/01/11 01:18:56;;;;;;;21.23;18.90;;;-7.20;1.00;;;;;;5038266;28;20233;-37
2024/01/11 01:21:22;;;;;;;23.73;20.20;;;-7.20;1.00;;;;;;5025427;28;20316;-36
2024/01/11 01:23:48;;;;;;;31.33;21.20;;;-7.20;1.00;;;;;;5031412;28;20542;-36
2024/01/11 01:26:13;;;;;;;23.53;20.60;;;-7.20;1.00;;;;;;5029624;28;20289;-53
2024/01/11 01:28:40;;;;;;;27.83;20.10;;;-7.20;1.00;;;;;;5037984;28;20190;-51
2024/01/11 01:31:05;;;;;;;25.13;20.23;;;-7.20;1.00;;;;;;5032203;28;20247;-48
2024/01/11 01:33:31;;;;;;;28.37;22.57;;;-7.30;1.00;;;;;;5031610;28;20194;-56
2024/01/11 01:35:56;;;;;;;27.30;22.00;;;-7.30;1.00;;;;;;5036490;28;20751;-57
2024/01/11 01:38:23;;;;;;;24.40;20.70;;;-7.30;1.00;;;;;;5034580;28;20212;-54
2024/01/11 01:40:49;;;;;;;26.50;21.02;;;-7.30;1.00;;;;;;5032429;28;20167;-57
2024/01/11 01:43:14;;;;;;;29.37;21.37;;;-7.40;1.00;;;;;;5042317;28;20568;-56
2024/01/11 01:45:40;;;;;;;27.20;19.53;;;-7.40;1.00;;;;;;5040616;28;20880;-52
2024/01/11 01:48:07;;;;;;;23.17;19.70;;;-7.40;1.00;;;;;;5042045;28;20190;-56
2024/01/11 01:50:33;;;;;;;23.30;20.55;;;-7.40;1.00;;;;;;5030750;28;20187;-57
2024/01/11 01:52:59;;;;;;;25.00;20.30;;;-7.40;1.00;;;;;;5032358;28;20181;-56
2024/01/11 01:55:26;;;;;;;23.02;19.98;;;-7.40;1.00;;;;;;5037768;28;20433;-50
2024/01/11 01:57:52;;;;;;;26.38;20.35;;;-7.40;1.00;;;;;;5052444;28;20340;-48
2024/01/11 02:00:18;;;;;;;27.30;20.52;;;-7.40;1.00;;;;;;5028482;28;20260;-57
2024/01/11 02:02:45;;;;;;;28.37;21.40;;;-7.40;1.00;;;;;;5029637;28;20912;-57
2024/01/11 02:05:12;;;;;;;21.70;18.85;;;-7.50;1.00;;;;;;5023694;28;20187;-56
2024/01/11 02:07:39;;;;;;;21.85;19.55;;;-7.50;1.00;;;;;;5033281;28;20296;-57
2024/01/11 02:10:06;;;;;;;23.30;21.05;;;-7.60;1.00;;;;;;5041398;28;20624;-48
2024/01/11 02:12:33;;;;;;;23.85;21.48;;;-7.60;1.00;;;;;;5033591;28;20289;-53
2024/01/11 02:14:59;;;;;;;22.88;19.73;;;-7.70;1.00;;;;;;5041202;28;20229;-48
2024/01/11 02:17:25;;;;;;;20.92;18.95;;;-7.70;1.00;;;;;;5038248;28;20185;-37
2024/01/11 02:19:51;;;;;;;26.13;20.00;;;-7.70;1.00;;;;;;5041836;28;20229;-37
2024/01/11 02:22:27;;;;;;;26.33;21.40;;;-7.70;1.00;;;;;;5038543;28;20216;-37
2024/01/11 02:24:53;;;;;;;28.00;19.80;;;-7.60;1.00;;;;;;5040696;28;20174;-36
2024/01/11 02:27:19;;;;;;;24.73;21.27;;;-7.60;1.00;;;;;;5040219;28;20754;-56
2024/01/11 02:29:44;;;;;;;21.98;19.85;;;-7.60;1.00;;;;;;5028456;28;20868;-56
2024/01/11 02:32:10;;;;;;;24.37;20.00;;;-7.50;1.00;;;;;;5022868;28;20560;-55
2024/01/11 02:34:36;;;;;;;25.25;20.05;;;-7.60;1.00;;;;;;5036676;28;20594;-56
2024/01/11 02:37:02;;;;;;;29.43;21.57;;;-7.60;1.00;;;;;;5024568;28;20186;-54
2024/01/11 02:39:28;;;;;;;20.30;18.37;;;-7.60;1.00;;;;;;5040489;28;20434;-55
2024/01/11 02:41:57;;;;;;;24.07;20.07;;;-7.60;1.00;;;;;;5033295;28;20186;-58
2024/01/11 02:44:23;;;;;;;26.13;21.25;;;-7.70;1.00;;;;;;5027746;28;20178;-55
2024/01/11 02:46:49;;;;;;;20.23;18.20;;;-7.70;1.00;;;;;;5033431;28;20182;-51
2024/01/11 02:49:15;;;;;;;22.00;19.60;;;-7.80;1.00;;;;;;5037483;28;20205;-54
2024/01/11 02:51:40;;;;;;;20.50;18.60;;;-7.80;1.00;;;;;;5029642;28;20190;-54
2024/01/11 02:54:06;;;;;;;23.57;20.53;;;-7.80;1.00;;;;;;5034966;28;20925;-53
2024/01/11 02:56:32;;;;;;;20.20;18.10;;;-7.80;1.00;;;;;;5038078;28;20187;-56
2024/01/11 02:58:58;;;;;;;22.40;19.90;;;-7.80;1.00;;;;;;5033637;28;20208;-57
2024/01/11 03:01:23;;;;;;;22.60;19.20;;;-7.80;1.00;;;;;;5034497;28;20731;-55
2024/01/11 03:03:49;;;;;;;21.27;19.07;;;-7.80;1.00;;;;;;5041277;28;20419;-57
2024/01/11 03:06:14;;;;;;;26.90;20.27;;;-7.70;1.00;;;;;;5040724;28;20217;-52
2024/01/11 03:08:40;;;;;;;21.40;19.10;;;-7.70;1.00;;;;;;5029115;28;20194;-57
2024/01/11 03:11:06;;;;;;;24.80;21.27;;;-7.70;1.00;;;;;;5040797;28;20181;-57
2024/01/11 03:13:31;;;;;;;21.37;19.47;;;-7.70;1.00;;;;;;5033330;28;20530;-55
2024/01/11 03:15:57;;;;;;;19.20;16.97;;;-7.70;1.00;;;;;;5040593;28;20464;-51
2024/01/11 03:18:23;;;;;;;22.37;19.30;;;-7.80;1.00;;;;;;5033136;28;20639;-56
2024/01/11 03:20:48;;;;;;;21.43;19.10;;;-7.80;1.00;;;;;;5022634;28;20201;-53
2024/01/11 03:23:14;;;;;;;21.50;18.70;;;-7.90;1.00;;;;;;5034136;28;20224;-54
2024/01/11 03:25:40;;;;;;;22.00;19.90;;;-7.90;1.00;;;;;;5040095;28;20301;-54
2024/01/11 03:28:05;;;;;;;21.47;19.27;;;-7.90;1.00;;;;;;5035101;28;20201;-50
2024/01/11 03:30:31;;;;;;;25.90;20.30;;;-7.90;1.00;;;;;;5040144;28;20209;-57
2024/01/11 03:32:57;;;;;;;26.30;18.45;;;-7.90;1.00;;;;;;5037579;28;20170;-57
2024/01/11 03:35:22;;;;;;;19.53;17.53;;;-7.90;1.00;;;;;;5040730;28;20510;-44
2024/01/11 03:37:48;;;;;;;19.90;18.03;;;-7.80;1.00;;;;;;5031984;28;20851;-54
2024/01/11 03:40:14;;;;;;;20.80;18.77;;;-7.90;1.00;;;;;;5040054;28;20271;-45
2024/01/11 03:42:41;;;;;;;23.63;20.00;;;-7.90;1.00;;;;;;5016009;28;20205;-55
2024/01/11 03:45:07;;;;;;;22.58;19.30;;;-7.90;1.00;;;;;;5027056;28;21363;-57
2024/01/11 03:47:32;;;;;;;19.43;17.57;;;-7.90;1.00;;;;;;5022987;28;20175;-55
2024/01/11 03:49:58;;;;;;;23.57;17.97;;;-7.80;1.00;;;;;;5033477;28;20492;-50
2024/01/11 03:52:24;;;;;;;20.60;18.47;;;-7.80;1.00;;;;;;5037350;28;20186;-57
2024/01/11 03:54:49;;;;;;;20.67;18.40;;;-7.80;1.00;;;;;;5033225;28;20185;-58
2024/01/11 03:57:16;;;;;;;19.77;18.03;;;-7.80;1.00;;;;;;5036106;28;20273;-58
2024/01/11 03:59:42;;;;;;;22.45;17.88;;;-7.80;1.00;;;;;;5021205;28;20576;-51
2024/01/11 04:02:07;;;;;;;20.67;18.53;;;-7.70;4.90;;;;;;5033018;28;20182;-57
2024/01/11 04:04:33;;;;;;;20.77;18.77;;;-7.70;6.90;;;;;;5031532;28;20182;-53
2024/01/11 04:06:59;;;;;;;20.33;18.23;;;-7.70;5.40;;;;;;5039721;28;20182;-55
2024/01/11 04:09:25;;;;;;;20.87;18.60;;;-7.70;7.00;;;;;;5036017;28;20185;-56
2024/01/11 04:11:50;;;;;;;23.83;17.93;;;-7.70;5.80;;;;;;5026993;28;20820;-58
2024/01/11 04:14:16;;;;;;;20.93;18.40;;;-7.70;4.70;;;;;;5001981;28;21030;-55
2024/01/11 04:16:45;;;;;;;21.30;18.53;;;-7.70;7.90;;;;;;5035407;28;20261;-57
2024/01/11 04:19:11;;;;;;;20.45;18.30;;;-7.70;5.90;;;;;;5033150;28;20249;-57
2024/01/11 04:21:39;;;;;;;21.80;17.35;;;-7.70;1.00;;;;;;5039050;28;20174;-56
2024/01/11 04:24:08;;;;;;;18.73;16.83;;;-7.80;1.00;;;;;;5024507;28;20197;-52
2024/01/11 04:26:34;;;;;;;20.02;17.88;;;-7.80;1.00;;;;;;5030030;28;20179;-48
2024/01/11 04:29:00;;;;;;;19.60;16.10;;;-7.90;1.00;;;;;;5026901;28;20190;-48
2024/01/11 04:31:26;;;;;;;16.87;15.27;;;-7.80;1.00;;;;;;5039223;28;20185;-49
2024/01/11 04:33:52;;;;;;;19.63;17.50;;;-7.80;1.00;;;;;;5031749;28;20187;-55
2024/01/11 04:36:17;;;;;;;18.43;16.50;;;-7.80;1.00;;;;;;5035982;28;20903;-47
2024/01/11 04:38:44;;;;;;;22.67;18.80;;;-7.80;1.00;;;;;;5041917;28;20393;-56
2024/01/11 04:41:13;;;;;;;23.73;17.98;;;-7.80;1.00;;;;;;5032824;28;20932;-56
2024/01/11 04:43:44;;;;;;;22.40;17.48;;;-7.80;1.00;;;;;;5034872;28;20232;-49
2024/01/11 04:46:20;;;;;;;23.83;18.92;;;-7.80;1.00;;;;;;5028860;28;20200;-50
2024/01/11 04:48:46;;;;;;;20.67;18.50;;;-7.80;1.00;;;;;;5036522;28;20217;-53
2024/01/11 04:51:13;;;;;;;25.63;19.00;;;-7.80;1.00;;;;;;5038732;28;20505;-54
2024/01/11 04:53:40;;;;;;;19.50;17.58;;;-7.90;1.00;;;;;;5031304;28;21006;-55
2024/01/11 04:56:10;;;;;;;19.73;17.83;;;-7.90;1.00;;;;;;5039090;28;20290;-55
2024/01/11 04:58:39;;;;;;;17.73;16.02;;;-8.00;1.00;;;;;;5034528;28;20661;-58
2024/01/11 05:01:14;;;;;;;19.95;17.75;;;-8.00;1.00;;;;;;5030853;28;20188;-44
2024/01/11 05:03:40;;;;;;;22.42;17.20;;;-8.00;1.00;;;;;;5033296;28;20483;-46
2024/01/11 05:06:06;;;;;;;19.52;16.30;;;-8.00;1.00;;;;;;5030482;28;20209;-58
2024/01/11 05:08:31;;;;;;;17.53;15.73;;;-8.00;1.00;;;;;;5031566;28;20182;-57
2024/01/11 05:10:57;;;;;;;19.80;17.77;;;-8.00;1.00;;;;;;5042278;28;20425;-56
2024/01/11 05:13:22;;;;;;;20.87;17.80;;;-7.90;1.00;;;;;;5037577;28;20241;-57
2024/01/11 05:15:48;;;;;;;22.63;18.53;;;-8.00;1.00;;;;;;5031698;28;20182;-57
2024/01/11 05:18:14;;;;;;;23.13;18.37;;;-8.10;1.00;;;;;;5040113;28;20185;-55
2024/01/11 05:20:40;;;;;;;19.80;17.80;;;-8.10;1.00;;;;;;5035759;28;20661;-52
2024/01/11 05:23:06;;;;;;;21.38;17.00;;;-8.00;1.00;;;;;;5031227;28;20239;-58
2024/01/11 05:25:33;;;;;;;16.97;15.33;;;-8.00;1.00;;;;;;5035199;28;20265;-56
2024/01/11 05:27:59;;;;;;;19.10;17.33;;;-8.00;1.00;;;;;;5039050;28;20424;-55
2024/01/11 05:30:25;;;;;;;17.38;15.88;;;-8.00;1.00;;;;;;5042388;28;20714;-35
2024/01/11 05:32:51;;;;;;;21.00;16.27;;;-8.00;1.00;;;;;;5038146;28;20179;-35
2024/01/11 05:35:16;;;;;;;18.50;16.83;;;-8.00;1.00;;;;;;5037859;28;20186;-35
2024/01/11 05:37:42;;;;;;;18.80;17.07;;;-8.00;1.00;;;;;;5042304;28;20183;-36
2024/01/11 05:40:08;;;;;;;24.23;18.37;;;-8.00;1.00;;;;;;5030672;28;20202;-36
2024/01/11 05:42:34;;;;;;;19.17;17.08;;;-8.00;1.00;;;;;;5035036;28;20189;-36
2024/01/11 05:44:59;;;;;;;18.67;16.97;;;-8.00;1.00;;;;;;5026976;28;20174;-36
2024/01/11 05:47:25;;;;;;;22.30;17.43;;;-8.00;1.00;;;;;;5041415;28;20265;-36
2024/01/11 05:49:51;;;;;;;23.63;17.27;;;-8.00;1.00;;;;;;5039309;28;20261;-36
2024/01/11 05:52:16;;;;;;;18.50;16.13;;;-8.00;1.00;;;;;;5033932;28;20194;-36
2024/01/11 05:54:42;;;;;;;20.47;18.50;;;-8.00;1.00;;;;;;5028062;28;20629;-37
2024/01/11 05:57:07;;;;;;;20.23;18.03;;;-8.00;1.00;;;;;;5033903;28;20480;-36
2024/01/11 05:59:33;;;;;;;19.77;17.70;;;-8.00;1.00;;;;;;5029151;28;20262;-36
2024/01/11 06:02:01;;;;;;;18.27;16.13;;;-8.00;1.00;;;;;;5026952;28;20228;-36
2024/01/11 06:04:27;;;;;;;17.48;15.77;;;-8.00;1.00;;;;;;5031000;28;20424;-36
2024/01/11 06:06:52;;;;;;;21.07;17.03;;;-8.00;1.00;;;;;;5029409;28;20186;-36
2024/01/11 06:09:18;;;;;;;19.53;17.53;;;-8.10;1.00;;;;;;5031155;28;20355;-36
2024/01/11 06:11:43;;;;;;;24.00;17.10;;;-8.10;1.00;;;;;;5037985;28;20182;-36
2024/01/11 06:14:09;;;;;;;23.63;16.80;;;-8.00;1.00;;;;;;5041647;28;20261;-37
2024/01/11 06:16:35;;;;;;;19.33;16.93;;;-7.90;1.00;;;;;;5029867;28;20220;-36
2024/01/11 06:19:01;;;;;;;18.47;16.40;;;-7.90;1.00;;;;;;5041701;28;20242;-36
2024/01/11 06:21:26;;;;;;;24.70;17.60;;;-8.00;1.00;;;;;;5030326;28;20394;-36
2024/01/11 06:23:52;;;;;;;18.53;16.57;;;-7.90;1.00;;;;;;5034420;28;20177;-36
2024/01/11 06:26:17;;;;;;;21.43;19.17;;;-8.00;1.00;;;;;;5037344;28;20277;-36
2024/01/11 06:28:43;;;;;;;17.17;15.40;;;-8.00;1.00;;;;;;5036702;28;20181;-36
2024/01/11 06:31:12;;;;;;;21.20;17.83;;;-8.00;1.00;;;;;;5034378;28;20666;-35
2024/01/11 06:33:38;;;;;;;18.02;16.17;;;-8.00;1.00;;;;;;5029799;28;20190;-36
2024/01/11 06:36:09;;;;;;;22.30;17.70;;;-8.00;1.00;;;;;;5006931;28;20660;-36
2024/01/11 06:38:35;;;;;;;18.17;16.40;;;-8.00;1.00;;;;;;5034531;28;20360;-36
2024/01/11 06:41:01;;;;;;;19.20;17.17;;;-8.10;1.00;;;;;;5036090;28;20208;-36
2024/01/11 06:43:26;;;;;;;18.43;16.50;;;-8.10;1.00;;;;;;5041103;28;20189;-36
2024/01/11 06:45:53;;;;;;;18.70;16.70;;;-8.10;1.00;;;;;;5025182;28;20328;-38
2024/01/11 06:48:19;;;;;;;20.65;18.48;;;-8.10;1.00;;;;;;5027609;28;20265;-37
2024/01/11 06:50:45;;;;;;;19.43;17.40;;;-8.00;1.00;;;;;;5039738;28;20270;-36
2024/01/11 06:53:10;;;;;;;23.53;18.37;;;-8.00;1.00;;;;;;5029982;28;20186;-36
2024/01/11 06:55:36;;;;;;;19.23;17.17;;;-8.00;1.00;;;;;;5003994;28;20403;-36
2024/01/11 06:58:02;;;;;;;19.37;16.40;;;-8.00;3.40;;;;;;5025935;28;20225;-36
2024/01/11 07:00:27;;;;;;;19.63;16.50;;;-7.90;5.90;;;;;;5031248;28;20552;-36
2024/01/11 07:02:53;;;;;;;22.20;16.83;;;-7.80;21.20;;;;;;5029152;28;21022;-36
2024/01/11 07:05:19;;;;;;;19.73;17.53;;;-7.80;27.60;;;;;;5034959;28;20184;-36
2024/01/11 07:07:45;;;;;;;18.42;16.65;;;-7.80;29.10;;;;;;5039600;28;20668;-53
2024/01/11 07:10:12;;;;;;;18.07;16.17;;;-7.70;26.60;;;;;;5033658;28;20675;-57
2024/01/11 07:12:38;;;;;;;19.65;16.95;;;-7.70;26.80;;;;;;5036360;28;20200;-55
2024/01/11 07:15:04;;;;;;;19.92;16.95;;;-7.70;26.10;;;;;;5040929;28;20384;-49
2024/01/11 07:17:30;;;;;;;26.23;18.02;;;-7.60;25.50;;;;;;5031038;28;20193;-36
2024/01/11 07:19:56;;;;;;;21.13;18.17;;;-7.60;24.00;;;;;;5033536;28;20230;-36
2024/01/11 07:22:21;;;;;;;26.73;19.23;;;-7.60;21.00;;;;;;5025024;28;20190;-36
2024/01/11 07:24:47;;;;;;;19.37;16.80;;;-7.50;19.20;;;;;;5034007;28;20182;-36
2024/01/11 07:27:13;;;;;;;18.97;17.03;;;-7.40;17.20;;;;;;5025544;28;20206;-36
2024/01/11 07:29:38;;;;;;;23.30;18.00;;;-7.40;16.90;;;;;;5040585;28;20531;-38
2024/01/11 07:32:04;;;;;;;23.47;17.17;;;-7.30;17.80;;;;;;5006141;28;20190;-36
2024/01/11 07:34:30;;;;;;;27.73;20.00;;;-7.20;20.40;;;;;;5029038;28;20205;-37
2024/01/11 07:36:56;;;;;;;20.60;18.43;;;-7.10;25.00;;;;;;5028401;28;20495;-36
2024/01/11 07:39:22;;;;;;;20.67;18.73;;;-7.00;29.30;;;;;;5028581;28;20680;-37
2024/01/11 07:41:48;;;;;;;25.20;20.60;;;-6.90;31.60;;;;;;5033889;28;20637;-36
2024/01/11 07:44:14;;;;;;;24.92;17.77;;;-6.80;31.30;;;;;;5028790;28;20243;-36
2024/01/11 07:46:40;;;;;;;23.30;18.90;;;-6.80;29.50;;;;;;5035718;28;20183;-57
2024/01/11 07:49:06;;;;;;;24.80;20.40;;;-6.70;26.40;;;;;;5022124;28;20197;-55
2024/01/11 07:51:34;;;;;;;30.30;21.60;;;-6.60;21.40;;;;;;5037374;28;20566;-42
2024/01/11 07:54:00;;;;;;;23.02;19.25;;;-6.60;13.50;;;;;;5030625;28;20186;-54
2024/01/11 07:56:26;;;;;;;24.30;16.87;;;-6.60;4.70;;;;;;5003417;28;20178;-37
2024/01/11 07:58:51;;;;;;;21.83;18.00;;;-6.60;1.00;;;;;;5027537;28;20457;-37
2024/01/11 08:01:17;;;;;;;19.40;17.40;;;-6.60;1.00;;;;;;5021079;28;20237;-37
2024/01/11 08:03:45;;;;;;;20.10;16.23;;;-6.60;1.00;;;;;;5025226;28;20178;-36
2024/01/11 08:06:10;;;;;;;21.73;19.30;;;-6.60;1.00;;;;;;5029120;28;20656;-37
2024/01/11 08:08:38;;;;;;;21.47;19.13;;;-6.60;1.00;;;;;;5030159;28;20196;-36
2024/01/11 08:11:05;;;;;;;29.95;19.80;;;-6.60;1.00;;;;;;5013005;28;20719;-38
2024/01/11 08:13:31;;;;;;;26.23;19.33;;;-6.50;1.00;;;;;;5036380;28;20485;-37
2024/01/11 08:15:57;;;;;;;23.75;20.13;;;-6.40;1.00;;;;;;5039941;28;20194;-36
2024/01/11 08:18:23;;;;;;;23.73;18.55;;;-6.40;1.00;;;;;;5033161;28;20320;-37
2024/01/11 08:20:49;;;;;;;25.65;20.20;;;-6.30;1.00;;;;;;5039373;28;20174;-36
2024/01/11 08:23:15;;;;;;;24.50;21.87;;;-6.30;1.00;;;;;;5028168;28;20186;-38
2024/01/11 08:25:40;;;;;;;22.10;19.80;;;-6.30;1.00;;;;;;5036422;28;20193;-37
2024/01/11 08:28:07;;;;;;;21.73;19.70;;;-6.10;1.00;;;;;;5031280;28;20261;-36
2024/01/11 08:30:32;;;;;;;27.77;19.50;;;-6.00;1.00;;;;;;5024054;28;20185;-37
2024/01/11 08:32:58;;;;;;;22.27;19.57;;;-5.90;1.00;;;;;;5025375;28;20182;-38
2024/01/11 08:35:24;;;;;;;21.97;19.67;;;-5.80;1.00;;;;;;5034201;28;20691;-37
2024/01/11 08:37:49;;;;;;;28.60;20.30;;;-5.60;1.00;;;;;;5021106;28;20649;-36
2024/01/11 08:40:15;;;;;;;22.00;19.63;;;-5.20;1.00;;;;;;5028754;28;20262;-37
2024/01/11 08:42:42;;;;;;;22.75;19.50;;;-5.00;1.00;;;;;;5032829;28;20704;-37
2024/01/11 08:45:08;;;;;;;21.60;19.45;;;-4.90;1.00;;;;;;5034199;28;20596;-37
2024/01/11 08:47:34;;;;;;;24.02;19.80;;;-4.60;1.00;;;;;;5033948;28;20644;-36
2024/01/11 08:50:00;;;;;;;23.55;21.05;;;-4.30;1.00;;;;;;5035702;28;20529;-38
2024/01/11 08:52:26;;;;;;;23.97;20.70;;;-3.90;1.00;;;;;;5035055;28;20177;-37
2024/01/11 08:54:51;;;;;;;27.67;21.00;;;-3.40;99.90;;;;;;5036481;28;20426;-38
2024/01/11 08:57:17;;;;;;;27.03;23.80;;;-3.10;1.00;;;;;;5036030;28;20185;-51
2024/01/11 08:59:43;;;;;;;24.80;21.97;;;-2.70;99.90;;;;;;5031757;28;20711;-44
2024/01/11 09:02:08;;;;;;;29.53;24.03;;;-2.10;99.90;;;;;;5029731;28;20185;-58
2024/01/11 09:04:34;;;;;;;27.00;24.20;;;-2.00;99.90;;;;;;5004249;28;20181;-54
2024/01/11 09:07:00;;;;;;;26.53;23.33;;;-2.00;99.90;;;;;;5029024;28;20178;-57
2024/01/11 09:09:25;;;;;;;36.10;25.00;;;-1.60;99.90;;;;;;5037202;28;20705;-53
2024/01/11 09:11:51;;;;;;;29.47;24.53;;;-1.40;1.00;;;;;;5039157;28;20298;-56
2024/01/11 09:14:17;;;;;;;28.42;24.13;;;-1.40;1.00;;;;;;5025561;28;20177;-53
2024/01/11 09:16:44;;;;;;;25.83;23.23;;;-1.40;1.00;;;;;;5039149;28;20833;-47
2024/01/11 09:19:10;;;;;;;26.05;23.08;;;-1.40;1.00;;;;;;5026797;28;20264;-50
2024/01/11 09:21:36;;;;;;;26.83;23.98;;;-1.50;1.00;;;;;;5029019;28;20265;-55
2024/01/11 09:24:02;;;;;;;24.80;22.47;;;-1.50;1.00;;;;;;5029006;28;20339;-56
2024/01/11 09:26:27;;;;;;;28.50;24.57;;;-1.00;1.00;;;;;;5037923;28;20608;-53
2024/01/11 09:28:53;;;;;;;27.27;23.67;;;-0.60;1.00;;;;;;5037634;28;20191;-56
2024/01/11 09:31:19;;;;;;;25.77;23.17;;;-0.30;1.00;;;;;;5039094;28;20687;-55
2024/01/11 09:33:45;;;;;;;28.67;25.17;;;-0.40;1.00;;;;;;5031144;28;20209;-56
2024/01/11 09:36:12;;;;;;;27.90;24.90;;;-0.60;1.00;;;;;;5029837;28;20195;-49
2024/01/11 09:38:37;;;;;;;28.33;25.33;;;-0.70;1.00;;;;;;5028249;28;20210;-54
2024/01/11 09:41:07;;;;;;;28.10;25.17;;;-0.60;1.00;;;;;;5038310;28;20637;-57
2024/01/11 09:43:34;;;;;;;28.70;25.23;;;-0.40;1.00;;;;;;5030763;28;20410;-55
2024/01/11 09:46:05;;;;;;;28.73;24.38;;;-0.30;1.00;;;;;;5038569;28;20196;-52
2024/01/11 09:48:35;;;;;;;26.30;23.70;;;-0.30;1.00;;;;;;5025892;28;20171;-49
2024/01/11 09:51:05;;;;;;;31.17;26.38;;;-0.20;1.00;;;;;;5038528;28;20179;-55
2024/01/11 09:53:33;;;;;;;30.85;24.60;;;-0.30;1.00;;;;;;5036350;28;20212;-54
2024/01/11 09:55:59;;;;;;;29.05;24.88;;;-0.40;1.00;;;;;;5031824;28;20257;-51
2024/01/11 09:58:26;;;;;;;30.63;24.08;;;-0.60;1.00;;;;;;5033455;28;20187;-43
2024/01/11 10:00:55;;;;;;;30.55;25.65;;;-0.70;1.00;;;;;;5024949;28;20184;-56
2024/01/11 10:03:23;;;;;;;32.90;26.67;;;-0.80;1.00;;;;;;5037250;28;20178;-50
2024/01/11 10:05:50;;;;;;;33.25;27.10;;;-0.70;1.00;;;;;;5025826;28;20321;-51
2024/01/11 10:08:21;;;;;;;28.83;23.55;;;-0.50;1.00;;;;;;5035843;28;20605;-55
2024/01/11 10:10:46;;;;;;;30.95;25.58;;;-0.70;1.00;;;;;;5036632;28;20265;-58
2024/01/11 10:13:12;;;;;;;28.20;24.60;;;-0.70;1.00;;;;;;5041566;28;20933;-58
2024/01/11 10:15:38;;;;;;;29.30;25.63;;;-0.70;1.00;;;;;;5036857;28;20186;-54
2024/01/11 10:18:04;;;;;;;31.93;25.67;;;-0.60;1.00;;;;;;5042058;28;20178;-56
2024/01/11 10:20:31;;;;;;;29.47;26.27;;;-0.60;1.00;;;;;;5037748;28;20904;-52
2024/01/11 10:22:58;;;;;;;29.58;26.42;;;-0.80;1.00;;;;;;5030728;28;20566;-54
2024/01/11 10:25:23;;;;;;;33.92;27.48;;;-0.80;1.00;;;;;;5038538;28;20659;-58
2024/01/11 10:27:49;;;;;;;46.23;28.40;;;-0.80;1.00;;;;;;5030258;28;20190;-56
2024/01/11 10:30:16;;;;;;;29.60;26.00;;;-0.80;1.00;;;;;;5029473;28;20440;-41
2024/01/11 10:32:45;;;;;;;33.65;28.85;;;-0.90;1.00;;;;;;5041624;28;20182;-54
2024/01/11 10:35:11;;;;;;;32.55;27.02;;;-0.90;1.00;;;;;;5041107;28;20185;-56
2024/01/11 10:37:40;;;;;;;33.13;28.20;;;-0.90;1.00;;;;;;5037733;28;20184;-53
2024/01/11 10:40:12;;;;;;;41.78;29.63;;;-0.90;1.00;;;;;;5014355;28;20468;-56
2024/01/11 10:42:51;;;;;;;34.33;28.67;;;-0.90;1.00;;;;;;5041362;28;20249;-55
2024/01/11 10:45:18;;;;;;;42.72;31.83;;;-1.00;1.00;;;;;;5029808;28;20559;-56
2024/01/11 10:47:58;;;;;;;43.42;30.65;;;-1.00;1.00;;;;;;5033871;28;20182;-47
2024/01/11 10:50:25;;;;;;;41.25;29.55;;;-0.80;1.00;;;;;;5036056;28;20656;-56
2024/01/11 10:53:11;;;;;;;41.35;31.00;;;-0.30;1.00;;;;;;5041010;28;20212;-54
2024/01/11 10:55:38;;;;;;;39.83;30.77;;;0.50;1.00;;;;;;5036537;28;20652;-49
2024/01/11 10:58:05;;;;;;;43.22;30.90;;;1.50;1.00;;;;;;5040889;28;20186;-58
2024/01/11 11:00:31;;;;;;;50.72;35.55;;;2.30;1.00;;;;;;5039334;28;20248;-57
2024/01/11 11:03:00;;;;;;;44.33;32.90;;;2.80;1.00;;;;;;5041129;28;20174;-51
2024/01/11 11:05:28;;;;;;;41.40;33.05;;;3.20;1.00;;;;;;5033529;28;20712;-57
2024/01/11 11:07:54;;;;;;;43.95;35.03;;;3.30;1.00;;;;;;5037606;28;20559;-57
2024/01/11 11:10:21;;;;;;;41.90;34.00;;;3.30;99.90;;;;;;5032349;28;20190;-54
2024/01/11 11:12:48;;;;;;;45.50;32.80;;;3.30;99.90;;;;;;5038487;28;20417;-58
2024/01/11 11:15:14;;;;;;;42.15;33.20;;;3.20;99.90;;;;;;5038464;28;20177;-56
2024/01/11 11:17:43;;;;;;;38.33;33.37;;;3.10;99.90;;;;;;5040780;28;20198;-56
2024/01/11 11:20:14;;;;;;;43.95;34.80;;;3.10;99.90;;;;;;5035002;28;20600;-48
2024/01/11 11:22:43;;;;;;;41.67;33.33;;;3.00;99.90;;;;;;5039069;28;20602;-57
2024/01/11 11:25:13;;;;;;;40.03;32.28;;;2.90;99.90;;;;;;5034745;28;20186;-55
2024/01/11 11:27:38;;;;;;;46.92;34.22;;;3.20;99.90;;;;;;5029499;28;20206;-56
2024/01/11 11:30:05;;;;;;;46.20;34.93;;;3.50;99.90;;;;;;5036891;28;20278;-58
2024/01/11 11:32:38;;;;;;;51.13;36.50;;;3.90;99.90;;;;;;5034485;28;20284;-58
2024/01/11 11:35:08;;;;;;;46.67;36.17;;;4.40;99.90;;;;;;5032245;28;20261;-55
2024/01/11 11:37:36;;;;;;;53.50;39.20;;;4.60;99.90;;;;;;5024687;28;20527;-57
2024/01/11 11:40:02;;;;;;;54.57;41.20;;;5.00;99.90;;;;;;5034875;28;20491;-57
2024/01/11 11:42:30;;;;;;;52.00;40.60;;;5.50;99.90;;;;;;5033884;28;20428;-53
2024/01/11 11:44:57;;;;;;;50.80;39.00;;;6.30;99.90;;;;;;5026305;28;20456;-53
2024/01/11 11:47:24;;;;;;;55.90;41.23;;;6.80;99.90;;;;;;5021835;28;20907;-38
2024/01/11 11:50:13;;;;;;;55.97;42.83;;;7.70;99.90;;;;;;5035624;28;20444;-40
2024/01/11 11:52:41;;;;;;;52.80;42.90;;;8.00;99.90;;;;;;5031737;28;20466;-38
2024/01/11 11:55:08;;;;;;;53.97;42.83;;;7.90;99.90;;;;;;5039265;28;20776;-37
2024/01/11 11:57:35;;;;;;;54.70;43.57;;;7.80;99.90;;;;;;5039241;28;20428;-37
2024/01/11 12:00:06;;;;;;;55.47;44.27;;;7.90;99.90;;;;;;5032873;28;20461;-36
2024/01/11 12:02:32;;;;;;;58.30;43.20;;;7.70;99.90;;;;;;5033887;28;21075;-38
2024/01/11 12:04:58;;;;;;;56.50;42.50;;;7.40;99.90;;;;;;5036704;28;20428;-37
2024/01/11 12:07:24;;;;;;;50.23;40.50;;;7.10;99.90;;;;;;5033427;28;20416;-37
2024/01/11 12:09:52;;;;;;;53.27;41.40;;;6.40;99.90;;;;;;5033955;28;20186;-37
2024/01/11 12:12:20;;;;;;;55.57;39.53;;;5.70;99.90;;;;;;5033310;28;20724;-37
2024/01/11 12:14:49;;;;;;;50.23;39.40;;;5.10;99.90;;;;;;5034432;28;20448;-37
2024/01/11 12:17:15;;;;;;;48.30;37.53;;;4.70;99.90;;;;;;5033373;28;20829;-36
2024/01/11 12:19:41;;;;;;;50.33;38.63;;;4.40;99.90;;;;;;5038737;28;20649;-36
2024/01/11 12:22:06;;;;;;;49.90;36.17;;;4.10;99.90;;;;;;5036546;28;20639;-35
2024/01/11 12:24:33;;;;;;;49.20;36.07;;;3.90;99.90;;;;;;5039506;28;20640;-36
2024/01/11 12:27:00;;;;;;;56.28;36.30;;;3.70;99.90;;;;;;5028425;28;20186;-36
2024/01/11 12:29:29;;;;;;;44.92;35.20;;;3.60;99.90;;;;;;5039317;28;20213;-52
2024/01/11 12:31:57;;;;;;;49.92;35.65;;;3.70;99.90;;;;;;5030287;28;20190;-54